createdAt,value
2023-02-23T00:02:24.525Z,100978.06
2023-02-23T00:04:50.837Z,100972.75
2023-02-23T00:07:17.156Z,100977.94
2023-02-23T00:09:43.464Z,100972.75
2023-02-23T00:12:09.832Z,100971.09
2023-02-23T00:14:36.944Z,100973.75
2023-02-23T00:17:04.935Z,100976.38
2023-02-23T00:19:31.374Z,100974.44
2023-02-23T00:21:57.690Z,100977.09
2023-02-23T00:24:24.052Z,100974.44
2023-02-23T00:26:50.379Z,100973.47
2023-02-23T00:29:17.310Z,100971.78
2023-02-23T00:31:43.881Z,100974.44
2023-02-23T00:34:13.107Z,100966.50
2023-02-23T00:36:39.885Z,100969.97
2023-02-23T00:39:07.609Z,100966.63
2023-02-23T00:41:33.881Z,100964.81
2023-02-23T00:44:00.686Z,100967.47
2023-02-23T00:46:28.112Z,100972.63
2023-02-23T00:48:55.590Z,100963.00
2023-02-23T00:51:24.326Z,100971.09
2023-02-23T00:53:53.346Z,100967.47
2023-02-23T00:56:19.680Z,100962.31
2023-02-23T00:58:46.053Z,100963.13
2023-02-23T01:01:13.349Z,100967.47
2023-02-23T01:03:40.202Z,100971.94
2023-02-23T01:06:07.666Z,100970.94
2023-02-23T01:08:35.974Z,100964.81
2023-02-23T01:11:06.174Z,100969.97
2023-02-23T01:13:32.478Z,100964.81
2023-02-23T01:15:58.894Z,100971.09
2023-02-23T01:18:25.462Z,100967.03
2023-02-23T01:20:51.770Z,100968.00
2023-02-23T01:23:21.135Z,100971.81
2023-02-23T01:25:48.851Z,100971.81
2023-02-23T01:28:15.158Z,100976.28
2023-02-23T01:30:41.521Z,100968.59
2023-02-23T01:33:07.959Z,100972.78
2023-02-23T01:35:34.370Z,100971.09
2023-02-23T01:38:00.837Z,100970.28
2023-02-23T01:40:27.327Z,100969.44
2023-02-23T01:42:55.757Z,100968.59
2023-02-23T01:45:28.241Z,100973.91
2023-02-23T01:47:56.809Z,100967.75
2023-02-23T01:50:24.937Z,100975.69
2023-02-23T01:52:51.997Z,100970.53
2023-02-23T01:55:19.670Z,100968.72
2023-02-23T01:57:46.222Z,100963.44
2023-02-23T02:00:14.496Z,100962.72
2023-02-23T02:02:41.275Z,100969.84
2023-02-23T02:05:08.356Z,100971.81
2023-02-23T02:07:35.022Z,100973.63
2023-02-23T02:10:01.363Z,100963.31
2023-02-23T02:12:27.685Z,100969.44
2023-02-23T02:14:54.026Z,100972.22
2023-02-23T02:17:30.688Z,100983.94
2023-02-23T02:20:23.059Z,100974.19
2023-02-23T02:23:13.579Z,100977.66
2023-02-23T02:25:49.470Z,100973.19
2023-02-23T02:28:29.356Z,100975.72
2023-02-23T02:31:07.231Z,100978.38
2023-02-23T02:33:40.738Z,100971.13
2023-02-23T02:36:24.975Z,100971.81
2023-02-23T02:38:55.920Z,100974.59
2023-02-23T02:41:28.168Z,100975.28
2023-02-23T02:43:58.164Z,100975.28
2023-02-23T02:46:26.386Z,100965.53
2023-02-23T02:48:56.684Z,100967.34
2023-02-23T02:51:25.533Z,100970.16
2023-02-23T02:53:57.642Z,100964.84
2023-02-23T02:56:26.902Z,100959.56
2023-02-23T02:58:53.780Z,100966.66
2023-02-23T03:01:20.858Z,100960.53
2023-02-23T03:03:47.572Z,100967.50
2023-02-23T03:06:14.340Z,100965.81
2023-02-23T03:08:44.009Z,100966.66
2023-02-23T03:11:11.487Z,100966.66
2023-02-23T03:13:45.856Z,100965.81
2023-02-23T03:16:18.474Z,100971.97
2023-02-23T03:18:54.931Z,100970.81
2023-02-23T03:21:25.581Z,100972.22
2023-02-23T03:23:56.396Z,100977.41
2023-02-23T03:26:28.000Z,100969.72
2023-02-23T03:29:01.682Z,100977.66
2023-02-23T03:31:35.681Z,100974.03
2023-02-23T03:34:05.971Z,100975.84
2023-02-23T03:36:36.112Z,100985.19
2023-02-23T03:39:07.356Z,100983.50
2023-02-23T03:41:35.758Z,100995.34
2023-02-23T03:44:07.400Z,100994.66
2023-02-23T03:46:35.958Z,100993.56
2023-02-23T03:49:04.013Z,100994.25
2023-02-23T03:51:31.920Z,100995.22
2023-02-23T03:54:01.748Z,101003.31
2023-02-23T03:56:30.107Z,101007.63
2023-02-23T03:58:58.680Z,100999.25
2023-02-23T04:01:27.100Z,101000.31
2023-02-23T04:03:56.540Z,101005.91
2023-02-23T04:06:24.014Z,101000.63
2023-02-23T04:08:51.048Z,101013.00
2023-02-23T04:11:20.579Z,101013.47
2023-02-23T04:13:50.972Z,101011.50
2023-02-23T04:16:17.813Z,101012.47
2023-02-23T04:18:45.498Z,101012.88
2023-02-23T04:21:11.891Z,101009.09
2023-02-23T04:23:38.758Z,101015.84
2023-02-23T04:26:05.119Z,101016.19
2023-02-23T04:28:31.495Z,101008.69
2023-02-23T04:30:57.851Z,101018.56
2023-02-23T04:33:24.190Z,101018.97
2023-02-23T04:35:53.364Z,101019.66
2023-02-23T04:38:19.681Z,101020.38
2023-02-23T04:40:46.085Z,101023.97
2023-02-23T04:43:12.803Z,101026.34
2023-02-23T04:45:39.369Z,101024.97
2023-02-23T04:48:06.277Z,101027.03
2023-02-23T04:50:32.813Z,101026.13
2023-02-23T04:53:00.555Z,101029.28
2023-02-23T04:55:26.831Z,101026.63
2023-02-23T04:57:57.135Z,101032.06
2023-02-23T05:00:23.487Z,101034.81
2023-02-23T05:02:50.864Z,101029.28
2023-02-23T05:05:17.378Z,101032.59
2023-02-23T05:07:43.674Z,101033.34
2023-02-23T05:10:11.907Z,101037.63
2023-02-23T05:12:38.241Z,101032.72
2023-02-23T05:15:05.158Z,101035.50
2023-02-23T05:17:31.594Z,101036.88
2023-02-23T05:19:57.917Z,101040.81
2023-02-23T05:22:24.223Z,101039.00
2023-02-23T05:24:50.701Z,101047.63
2023-02-23T05:27:18.359Z,101043.56
2023-02-23T05:29:44.652Z,101046.34
2023-02-23T05:32:11.125Z,101042.03
2023-02-23T05:34:37.622Z,101049.13
2023-02-23T05:37:03.953Z,101050.25
2023-02-23T05:39:30.261Z,101044.66
2023-02-23T05:41:56.562Z,101042.31
2023-02-23T05:44:24.257Z,101044.81
2023-02-23T05:46:50.554Z,101044.81
2023-02-23T05:49:16.883Z,101045.63
2023-02-23T05:51:43.221Z,101037.31
2023-02-23T05:54:09.556Z,101043.84
2023-02-23T05:56:35.852Z,101056.09
2023-02-23T05:59:02.246Z,101061.50
2023-02-23T06:01:30.366Z,101059.84
2023-02-23T06:03:56.921Z,101054.53
2023-02-23T06:06:23.421Z,101056.34
2023-02-23T06:08:49.744Z,101058.88
2023-02-23T06:11:16.032Z,101061.38
2023-02-23T06:13:42.344Z,101064.03
2023-02-23T06:16:08.840Z,101067.66
2023-02-23T06:18:36.606Z,101072.94
2023-02-23T06:21:03.297Z,101075.72
2023-02-23T06:23:30.837Z,101069.75
2023-02-23T06:25:57.355Z,101080.44
2023-02-23T06:28:23.684Z,101079.59
2023-02-23T06:30:51.586Z,101085.75
2023-02-23T06:33:17.973Z,101086.69
2023-02-23T06:35:45.674Z,101083.09
2023-02-23T06:38:12.409Z,101090.19
2023-02-23T06:40:38.851Z,101084.06
2023-02-23T06:43:05.233Z,101084.06
2023-02-23T06:45:31.839Z,101093.81
2023-02-23T06:47:58.289Z,101099.09
2023-02-23T06:50:24.658Z,101095.03
2023-02-23T06:52:52.289Z,101096.84
2023-02-23T06:55:18.588Z,101095.88
2023-02-23T06:57:44.872Z,101103.66
2023-02-23T07:00:11.789Z,101101.88
2023-02-23T07:02:38.145Z,101105.22
2023-02-23T07:05:04.733Z,101106.78
2023-02-23T07:07:31.041Z,101102.31
2023-02-23T07:09:58.718Z,101109.25
2023-02-23T07:12:25.302Z,101109.41
2023-02-23T07:14:51.596Z,101105.94
2023-02-23T07:17:17.997Z,101112.19
2023-02-23T07:19:44.320Z,101115.53
2023-02-23T07:22:10.659Z,101115.53
2023-02-23T07:24:36.994Z,101116.38
2023-02-23T07:27:04.703Z,101121.50
2023-02-23T07:29:31.037Z,101124.88
2023-02-23T07:31:57.452Z,101128.94
2023-02-23T07:34:23.825Z,101138.44
2023-02-23T07:36:50.154Z,101140.34
2023-02-23T07:39:16.491Z,101142.28
2023-02-23T07:41:42.807Z,101143.72
2023-02-23T07:44:10.442Z,101146.38
2023-02-23T07:46:36.716Z,101148.16
2023-02-23T07:49:03.188Z,101155.81
2023-02-23T07:51:29.496Z,101161.09
2023-02-23T07:53:55.938Z,101161.56
2023-02-23T07:56:22.231Z,101163.25
2023-02-23T07:58:48.560Z,101165.88
2023-02-23T08:01:16.490Z,101169.25
2023-02-23T08:03:42.832Z,101171.91
2023-02-23T08:06:09.167Z,101171.47
2023-02-23T08:08:35.557Z,101177.06
2023-02-23T08:11:02.406Z,101188.31
2023-02-23T08:13:28.821Z,101196.47
2023-02-23T08:15:55.120Z,101195.88
2023-02-23T08:18:23.029Z,101199.63
2023-02-23T08:20:49.526Z,101195.44
2023-02-23T08:23:15.879Z,101201.19
2023-02-23T08:25:42.277Z,101197.97
2023-02-23T08:28:08.587Z,101198.59
2023-02-23T08:30:35.030Z,101206.22
2023-02-23T08:33:01.444Z,101206.47
2023-02-23T08:35:29.092Z,101216.50
2023-02-23T08:37:56.863Z,101212.91
2023-02-23T08:40:23.329Z,101209.31
2023-02-23T08:42:49.666Z,101209.19
2023-02-23T08:45:16.161Z,101216.28
2023-02-23T08:47:42.557Z,101212.66
2023-02-23T08:50:09.578Z,101224.34
2023-02-23T08:52:37.750Z,101226.06
2023-02-23T08:55:04.280Z,101223.00
2023-02-23T08:57:32.272Z,101231.50
2023-02-23T08:59:58.598Z,101222.03
2023-02-23T09:02:24.898Z,101225.66
2023-02-23T09:04:51.214Z,101222.19
2023-02-23T09:07:17.706Z,101226.94
2023-02-23T09:09:45.389Z,101225.81
2023-02-23T09:12:11.715Z,101221.84
2023-02-23T09:14:38.032Z,101227.09
2023-02-23T09:17:04.364Z,101236.69
2023-02-23T09:19:31.558Z,101233.97
2023-02-23T09:21:57.875Z,101233.97
2023-02-23T09:24:24.155Z,101247.53
2023-02-23T09:26:51.853Z,101246.28
2023-02-23T09:29:18.174Z,101248.44
2023-02-23T09:31:44.614Z,101254.13
2023-02-23T09:34:10.995Z,101253.16
2023-02-23T09:36:37.305Z,101256.78
2023-02-23T09:39:03.737Z,101257.88
2023-02-23T09:41:51.206Z,101260.88
2023-02-23T09:44:26.298Z,101270.19
2023-02-23T09:46:59.438Z,101271.66
2023-02-23T09:49:28.230Z,101277.88
2023-02-23T09:51:56.073Z,101274.13
2023-02-23T09:54:23.478Z,101274.13
2023-02-23T09:56:50.260Z,101279.19
2023-02-23T09:59:17.830Z,101270.25
2023-02-23T10:01:52.898Z,101280.34
2023-02-23T10:04:21.264Z,101284.13
2023-02-23T10:06:50.313Z,101286.88
2023-02-23T10:09:21.841Z,101288.72
2023-02-23T10:11:52.823Z,101286.63
2023-02-23T10:14:41.574Z,101295.13
2023-02-23T10:17:14.291Z,101294.03
2023-02-23T10:19:44.282Z,101291.94
2023-02-23T10:22:11.537Z,101290.41
2023-02-23T10:24:40.536Z,101279.13
2023-02-23T10:27:08.568Z,101287.34
2023-02-23T10:29:37.084Z,101288.31
2023-02-23T10:32:05.357Z,101291.97
2023-02-23T10:34:33.692Z,101286.38
2023-02-23T10:37:00.911Z,101293.81
2023-02-23T10:39:28.616Z,101294.34
2023-02-23T10:41:56.320Z,101296.03
2023-02-23T10:44:24.303Z,101290.47
2023-02-23T10:46:54.761Z,101291.44
2023-02-23T10:49:24.660Z,101292.69
2023-02-23T10:51:52.467Z,101287.56
2023-02-23T10:54:35.332Z,101299.66
2023-02-23T10:57:01.818Z,101299.28
2023-02-23T10:59:28.774Z,101301.22
2023-02-23T11:02:02.445Z,101299.84
2023-02-23T11:04:30.081Z,101300.25
2023-02-23T11:07:08.137Z,101299.16
2023-02-23T11:09:45.725Z,101297.47
2023-02-23T11:12:16.842Z,101300.72
2023-02-23T11:14:43.276Z,101295.97
2023-02-23T11:17:24.267Z,101295.41
2023-02-23T11:19:50.699Z,101294.44
2023-02-23T11:22:19.985Z,101299.19
2023-02-23T11:24:46.353Z,101307.16
2023-02-23T11:27:20.106Z,101313.84
2023-02-23T11:29:47.760Z,101309.78
2023-02-23T11:32:16.051Z,101306.31
2023-02-23T11:34:42.603Z,101298.06
2023-02-23T11:37:20.104Z,101308.56
2023-02-23T11:39:53.750Z,101300.72
2023-02-23T11:42:21.062Z,101306.59
2023-02-23T11:44:51.362Z,101303.81
2023-02-23T11:47:19.091Z,101302.53
2023-02-23T11:49:46.876Z,101289.16
2023-02-23T11:52:15.128Z,101302.00
2023-02-23T11:54:48.075Z,101292.63
2023-02-23T11:57:21.199Z,101285.66
2023-02-23T11:59:48.136Z,101284.94
2023-02-23T12:02:21.043Z,101281.47
2023-02-23T12:04:47.537Z,101288.03
2023-02-23T12:07:21.212Z,101289.13
2023-02-23T12:09:51.617Z,101289.28
2023-02-23T12:12:21.513Z,101286.91
2023-02-23T12:14:52.166Z,101282.31
2023-02-23T12:17:21.288Z,101281.72
2023-02-23T12:19:49.010Z,101284.66
2023-02-23T12:22:17.323Z,101277.56
2023-02-23T12:24:45.047Z,101274.03
2023-02-23T12:27:13.766Z,101264.00
2023-02-23T12:29:43.887Z,101257.97
2023-02-23T12:32:14.507Z,101259.13
2023-02-23T12:34:43.782Z,101259.53
2023-02-23T12:37:19.962Z,101269.56
2023-02-23T12:39:48.933Z,101272.91
2023-02-23T12:42:17.445Z,101274.59
2023-02-23T12:44:46.775Z,101269.88
2023-02-23T12:47:21.044Z,101268.72
2023-02-23T12:49:51.243Z,101262.16
2023-02-23T12:52:19.665Z,101268.88
2023-02-23T12:54:46.150Z,101271.66
2023-02-23T12:57:16.991Z,101275.16
2023-02-23T12:59:47.831Z,101268.31
2023-02-23T13:02:17.952Z,101263.16
2023-02-23T13:04:57.338Z,101275.72
2023-02-23T13:07:29.198Z,101272.22
2023-02-23T13:10:00.635Z,101274.59
2023-02-23T13:12:36.777Z,101272.66
2023-02-23T13:15:10.497Z,101276.97
2023-02-23T13:17:38.916Z,101279.63
2023-02-23T13:20:12.901Z,101276.44
2023-02-23T13:22:42.303Z,101277.81
2023-02-23T13:25:13.203Z,101277.13
2023-02-23T13:27:43.076Z,101274.59
2023-02-23T13:30:10.017Z,101275.59
2023-02-23T13:32:36.861Z,101275.72
2023-02-23T13:35:04.730Z,101271.13
2023-02-23T13:37:36.558Z,101280.31
2023-02-23T13:40:19.788Z,101280.91
2023-02-23T13:42:53.004Z,101274.34
2023-02-23T13:45:40.433Z,101277.97
2023-02-23T13:48:13.967Z,101275.72
2023-02-23T13:50:42.591Z,101274.19
2023-02-23T13:53:27.077Z,101276.56
2023-02-23T13:55:57.725Z,101273.78
2023-02-23T13:58:26.862Z,101283.56
2023-02-23T14:00:54.658Z,101289.44
2023-02-23T14:03:22.858Z,101279.81
2023-02-23T14:05:51.814Z,101278.94
2023-02-23T14:08:23.124Z,101287.19
2023-02-23T14:10:50.300Z,101283.44
2023-02-23T14:13:25.074Z,101282.16
2023-02-23T14:16:08.115Z,101287.75
2023-02-23T14:18:34.924Z,101287.34
2023-02-23T14:21:11.239Z,101291.25
2023-02-23T14:23:50.439Z,101301.44
2023-02-23T14:26:35.042Z,101305.63
2023-02-23T14:29:17.233Z,101294.72
2023-02-23T14:31:53.468Z,101289.41
2023-02-23T14:34:20.595Z,101296.00
2023-02-23T14:36:46.922Z,101302.41
2023-02-23T14:39:22.266Z,101302.13
2023-02-23T14:41:50.359Z,101303.25
2023-02-23T14:44:29.100Z,101307.44
2023-02-23T14:47:00.303Z,101297.50
2023-02-23T14:49:28.026Z,101307.44
2023-02-23T14:51:55.123Z,101302.97
2023-02-23T14:54:32.421Z,101300.88
2023-02-23T14:56:59.575Z,101305.19
2023-02-23T14:59:27.487Z,101300.72
2023-02-23T15:01:54.583Z,101305.06
2023-02-23T15:04:21.960Z,101313.00
2023-02-23T15:06:48.618Z,101313.66
2023-02-23T15:09:17.926Z,101314.00
2023-02-23T15:11:48.296Z,101304.75
2023-02-23T15:14:26.838Z,101305.31
2023-02-23T15:16:55.379Z,101306.00
2023-02-23T15:19:23.301Z,101309.31
2023-02-23T15:21:51.062Z,101307.09
2023-02-23T15:24:21.113Z,101302.22
2023-02-23T15:26:48.813Z,101312.53
2023-02-23T15:29:16.820Z,101316.16
2023-02-23T15:31:44.546Z,101304.59
2023-02-23T15:34:11.266Z,101311.56
2023-02-23T15:36:38.156Z,101300.25
2023-02-23T15:39:05.577Z,101295.91
2023-02-23T15:41:33.565Z,101301.66
2023-02-23T15:44:05.476Z,101301.66
2023-02-23T15:46:32.979Z,101303.38
2023-02-23T15:49:00.779Z,101306.44
2023-02-23T15:51:31.584Z,101306.41
2023-02-23T15:53:59.165Z,101317.56
2023-02-23T15:56:26.579Z,101311.69
2023-02-23T15:58:57.278Z,101310.84
2023-02-23T16:01:26.113Z,101311.69
2023-02-23T16:03:57.438Z,101311.53
2023-02-23T16:06:24.778Z,101317.44
2023-02-23T16:08:57.859Z,101317.94
2023-02-23T16:11:24.509Z,101310.09
2023-02-23T16:13:52.810Z,101310.34
2023-02-23T16:16:21.102Z,101315.25
2023-02-23T16:18:52.131Z,101318.75
2023-02-23T16:21:21.444Z,101306.06
2023-02-23T16:23:49.153Z,101305.75
2023-02-23T16:26:18.235Z,101309.09
2023-02-23T16:28:45.715Z,101310.91
2023-02-23T16:31:12.883Z,101315.38
2023-02-23T16:33:43.614Z,101315.50
2023-02-23T16:36:15.673Z,101318.28
2023-02-23T16:38:46.508Z,101317.47
2023-02-23T16:41:15.567Z,101316.63
2023-02-23T16:43:42.006Z,101316.22
2023-02-23T16:46:08.387Z,101319.81
2023-02-23T16:48:34.724Z,101314.41
2023-02-23T16:51:01.051Z,101322.34
2023-02-23T16:53:28.680Z,101322.16
2023-02-23T16:55:55.667Z,101331.66
2023-02-23T16:58:23.053Z,101322.56
2023-02-23T17:00:49.447Z,101337.41
2023-02-23T17:03:17.722Z,101337.44
2023-02-23T17:05:44.030Z,101338.97
2023-02-23T17:08:10.354Z,101338.88
2023-02-23T17:10:38.067Z,101344.13
2023-02-23T17:13:05.353Z,101335.22
2023-02-23T17:15:33.679Z,101334.13
2023-02-23T17:18:00.022Z,101334.38
2023-02-23T17:20:28.234Z,101339.25
2023-02-23T17:22:55.138Z,101344.97
2023-02-23T17:25:23.188Z,101338.97
2023-02-23T17:27:51.782Z,101347.25
2023-02-23T17:30:18.515Z,101340.66
2023-02-23T17:32:45.093Z,101343.44
2023-02-23T17:35:11.622Z,101347.72
2023-02-23T17:37:38.232Z,101343.66
2023-02-23T17:40:06.043Z,101346.31
2023-02-23T17:42:32.812Z,101345.47
2023-02-23T17:45:00.658Z,101350.66
2023-02-23T17:47:27.004Z,101356.91
2023-02-23T17:49:53.332Z,101348.88
2023-02-23T17:52:19.612Z,101352.88
2023-02-23T17:54:46.112Z,101354.38
2023-02-23T17:57:13.134Z,101352.94
2023-02-23T17:59:39.461Z,101351.03
2023-02-23T18:02:10.226Z,101350.19
2023-02-23T18:04:38.767Z,101354.75
2023-02-23T18:07:05.084Z,101350.31
2023-02-23T18:09:31.431Z,101345.41
2023-02-23T18:11:57.789Z,101352.66
2023-02-23T18:14:24.107Z,101340.50
2023-02-23T18:16:50.448Z,101343.28
2023-02-23T18:19:18.087Z,101340.63
2023-02-23T18:21:44.408Z,101338.09
2023-02-23T18:24:10.889Z,101340.63
2023-02-23T18:26:37.262Z,101347.97
2023-02-23T18:29:03.894Z,101345.50
2023-02-23T18:31:30.426Z,101355.34
2023-02-23T18:33:57.294Z,101352.72
2023-02-23T18:36:25.848Z,101351.28
2023-02-23T18:38:52.307Z,101360.19
2023-02-23T18:41:19.096Z,101368.22
2023-02-23T18:43:45.409Z,101364.03
2023-02-23T18:46:12.550Z,101360.56
2023-02-23T18:48:39.340Z,101365.97
2023-02-23T18:51:06.254Z,101362.63
2023-02-23T18:53:34.360Z,101359.00
2023-02-23T18:56:03.962Z,101358.16
2023-02-23T18:58:30.283Z,101358.88
2023-02-23T19:00:56.673Z,101359.84
2023-02-23T19:03:23.026Z,101366.34
2023-02-23T19:05:49.325Z,101362.13
2023-02-23T19:08:15.640Z,101365.75
2023-02-23T19:10:43.311Z,101365.19
2023-02-23T19:13:09.611Z,101367.72
2023-02-23T19:15:36.139Z,101363.63
2023-02-23T19:18:02.717Z,101359.31
2023-02-23T19:20:29.009Z,101356.66
2023-02-23T19:22:55.295Z,101365.56
2023-02-23T19:25:21.615Z,101371.81
2023-02-23T19:27:49.439Z,101369.16
2023-02-23T19:30:15.789Z,101368.19
2023-02-23T19:32:42.751Z,101361.22
2023-02-23T19:35:10.110Z,101366.16
2023-02-23T19:37:36.778Z,101365.31
2023-02-23T19:40:03.937Z,101365.19
2023-02-23T19:42:30.451Z,101367.19
2023-02-23T19:44:58.852Z,101365.69
2023-02-23T19:47:25.170Z,101372.66
2023-02-23T19:49:51.514Z,101360.81
2023-02-23T19:52:17.954Z,101371.63
2023-02-23T19:54:44.300Z,101375.94
2023-02-23T19:57:10.593Z,101379.06
2023-02-23T19:59:36.993Z,101382.56
2023-02-23T20:02:04.690Z,101377.63
2023-02-23T20:04:31.070Z,101384.91
2023-02-23T20:06:57.366Z,101384.84
2023-02-23T20:09:23.653Z,101381.31
2023-02-23T20:11:49.941Z,101391.59
2023-02-23T20:14:16.226Z,101389.31
2023-02-23T20:16:42.536Z,101400.09
2023-02-23T20:19:10.307Z,101386.91
2023-02-23T20:21:36.680Z,101389.94
2023-02-23T20:24:03.175Z,101399.25
2023-02-23T20:26:30.943Z,101396.88
2023-02-23T20:28:57.831Z,101392.84
2023-02-23T20:31:25.836Z,101382.06
2023-02-23T20:33:52.741Z,101389.53
2023-02-23T20:36:21.177Z,101383.13
2023-02-23T20:38:47.588Z,101393.81
2023-02-23T20:41:14.057Z,101394.97
2023-02-23T20:43:40.713Z,101396.78
2023-02-23T20:46:07.077Z,101399.50
2023-02-23T20:48:34.232Z,101389.78
2023-02-23T20:51:00.623Z,101393.47
2023-02-23T20:53:29.065Z,101388.94
2023-02-23T20:55:55.654Z,101392.94
2023-02-23T20:58:22.182Z,101388.50
2023-02-23T21:00:48.516Z,101390.69
2023-02-23T21:03:14.817Z,101391.63
2023-02-23T21:05:41.457Z,101394.41
2023-02-23T21:08:08.765Z,101396.31
2023-02-23T21:10:37.786Z,101390.41
2023-02-23T21:13:04.455Z,101391.03
2023-02-23T21:15:31.025Z,101388.03
2023-02-23T21:17:57.761Z,101381.75
2023-02-23T21:20:24.909Z,101376.13
2023-02-23T21:22:51.291Z,101371.44
2023-02-23T21:25:18.229Z,101381.06
2023-02-23T21:27:45.906Z,101375.88
2023-02-23T21:30:13.187Z,101388.34
2023-02-23T21:32:39.551Z,101388.47
2023-02-23T21:35:06.435Z,101384.75
2023-02-23T21:37:32.795Z,101383.06
2023-02-23T21:39:59.115Z,101376.72
2023-02-23T21:42:25.418Z,101381.88
2023-02-23T21:44:53.242Z,101385.47
2023-02-23T21:47:19.540Z,101373.97
2023-02-23T21:49:45.909Z,101370.94
2023-02-23T21:52:12.188Z,101372.72
2023-02-23T21:54:38.505Z,101377.78
2023-02-23T21:57:04.786Z,101372.50
2023-02-23T21:59:33.996Z,101370.22
2023-02-23T22:02:01.674Z,101376.69
2023-02-23T22:04:28.050Z,101362.41
2023-02-23T22:06:54.338Z,101362.41
2023-02-23T22:09:20.617Z,101363.31
2023-02-23T22:11:47.108Z,101369.50
2023-02-23T22:14:13.593Z,101371.41
2023-02-23T22:16:40.416Z,101373.72
2023-02-23T22:19:08.469Z,101375.22
2023-02-23T22:21:35.732Z,101374.97
2023-02-23T22:24:02.539Z,101381.28
2023-02-23T22:26:28.839Z,101381.41
2023-02-23T22:28:55.160Z,101379.44
2023-02-23T22:31:21.806Z,101383.38
2023-02-23T22:33:48.335Z,101380.09
2023-02-23T22:36:16.292Z,101381.78
2023-02-23T22:38:42.668Z,101383.69
2023-02-23T22:41:09.254Z,101384.84
2023-02-23T22:43:35.584Z,101380.66
2023-02-23T22:46:01.862Z,101374.56
2023-02-23T22:48:28.276Z,101378.13
2023-02-23T22:50:55.550Z,101376.25
2023-02-23T22:53:23.197Z,101372.88
2023-02-23T22:55:50.174Z,101373.06
2023-02-23T22:58:16.484Z,101371.41
2023-02-23T23:00:42.930Z,101384.56
2023-02-23T23:03:09.334Z,101384.56
2023-02-23T23:05:35.627Z,101381.94
2023-02-23T23:08:01.903Z,101381.94
2023-02-23T23:10:29.541Z,101382.66
2023-02-23T23:12:55.834Z,101385.31
2023-02-23T23:15:23.537Z,101379.19
2023-02-23T23:17:49.963Z,101377.84
2023-02-23T23:20:17.656Z,101377.97
2023-02-23T23:22:44.324Z,101366.06
2023-02-23T23:25:10.645Z,101368.47
2023-02-23T23:27:38.292Z,101365.94
2023-02-23T23:30:04.902Z,101367.47
2023-02-23T23:32:31.530Z,101364.31
2023-02-23T23:34:57.895Z,101358.75
2023-02-23T23:37:24.182Z,101360.88
2023-02-23T23:39:50.453Z,101363.72
2023-02-23T23:42:16.752Z,101354.91
2023-02-23T23:44:44.413Z,101345.44
2023-02-23T23:47:10.719Z,101348.59
2023-02-23T23:49:37.151Z,101342.91
2023-02-23T23:52:04.165Z,101340.28
2023-02-23T23:54:31.659Z,101337.88
2023-02-23T23:56:58.289Z,101327.56
2023-02-23T23:59:25.468Z,101320.22
